Janet — 9HSL8 — position and weather

sailwx.info

Track history (hours):
 
Tides and Currents Weather Stations Pressure Air Temp Water Temp Dewpoint Dewpoint Depression Visibility Wind Speed Wind Dir Waves Ship Positions

Janet

Last reported at 2015-Mar-30 16:33 UTC. Time now 2015-Mar-30 17:32 UTC.
Position N 38°03' W 009°39'.

Length 90 m; draft 4.8 m.

Type: Cargo ship. MMSI: 256371000.

Date/timePositionNaut miles runAvg speedWind from/ knotsBaromVisibWave heightAir tempDewpointWater temp
2015-Mar-30 16:33N 38°03' W 009°39'10 9.9
2015-Mar-30 15:34N 37°53' W 009°36'10 9.9
2015-Mar-30 14:33N 37°43' W 009°34'19 9.5
2015-Mar-30 12:33N 37°25' W 009°28'10 9.0
2015-Mar-30 11:28N 37°15' W 009°26'12 8.9
2015-Mar-30 10:08N 37°03' W 009°22'5 9.0
2015-Mar-30 09:33N 36°58' W 009°21'9 9.2
2015-Mar-30 08:33N 36°50' W 009°16'21 8.8
2015-Mar-30 06:07N 36°36' W 008°56'22 8.5
2015-Mar-30 03:33N 36°15' W 008°47'8 8.3
2015-Mar-30 02:33N 36°07' W 008°44'  
2015-Mar-22 14:10N 35°57' W 005°33'5 8.1
2015-Mar-22 13:33N 35°59' W 005°27'7 7.6
2015-Mar-22 12:33N 35°56' W 005°19'2 1.8
2015-Mar-22 11:33N 35°54' W 005°19'0 0.0
2015-Mar-22 10:33N 35°54' W 005°19'0 0.0
2015-Mar-22 09:33N 35°54' W 005°19'0 0.0
2015-Mar-22 08:33N 35°54' W 005°19'1 1.2
2015-Mar-22 07:33N 35°55' W 005°18'  
Track history (hours):
 
Tides and Currents Weather Stations Pressure Air Temp Water Temp Dewpoint Dewpoint Depression Visibility Wind Speed Wind Dir Waves Ship Positions

Janet

Last reported at 2015-Mar-30 16:33 UTC. Time now 2015-Mar-30 17:32 UTC.
Position N 38°03' W 009°39'.

Length 90 m; draft 4.8 m.

Type: Cargo ship. MMSI: 256371000.

Date/timePositionNaut miles runAvg speedWind from/ knotsBaromVisibWave heightAir tempDewpointWater temp
2015-Mar-30 16:33N 38°03' W 009°39'10 9.9
2015-Mar-30 15:34N 37°53' W 009°36'10 9.9
2015-Mar-30 14:33N 37°43' W 009°34'19 9.5
2015-Mar-30 12:33N 37°25' W 009°28'10 9.0
2015-Mar-30 11:28N 37°15' W 009°26'12 8.9
2015-Mar-30 10:08N 37°03' W 009°22'5 9.0
2015-Mar-30 09:33N 36°58' W 009°21'9 9.2
2015-Mar-30 08:33N 36°50' W 009°16'21 8.8
2015-Mar-30 06:07N 36°36' W 008°56'22 8.5
2015-Mar-30 03:33N 36°15' W 008°47'8 8.3
2015-Mar-30 02:33N 36°07' W 008°44'  
2015-Mar-22 14:10N 35°57' W 005°33'5 8.1
2015-Mar-22 13:33N 35°59' W 005°27'7 7.6
2015-Mar-22 12:33N 35°56' W 005°19'2 1.8
2015-Mar-22 11:33N 35°54' W 005°19'0 0.0
2015-Mar-22 10:33N 35°54' W 005°19'0 0.0
2015-Mar-22 09:33N 35°54' W 005°19'0 0.0
2015-Mar-22 08:33N 35°54' W 005°19'1 1.2
2015-Mar-22 07:33N 35°55' W 005°18'  

Dump ship's entire track history